sensor_id;sensor_type;location;lat;lon;timestamp;P1;durP1;ratioP1;P2;durP2;ratioP2
61709;SDS011;47633;51.494;5.386;2023-05-07T00:00:58;4.35;;;2.20;;
61709;SDS011;47633;51.494;5.386;2023-05-07T00:03:24;4.20;;;2.50;;
61709;SDS011;47633;51.494;5.386;2023-05-07T00:05:49;3.58;;;2.17;;
61709;SDS011;47633;51.494;5.386;2023-05-07T00:08:15;4.15;;;2.40;;
61709;SDS011;47633;51.494;5.386;2023-05-07T00:10:40;4.47;;;2.20;;
61709;SDS011;47633;51.494;5.386;2023-05-07T00:13:05;4.40;;;2.60;;
61709;SDS011;47633;51.494;5.386;2023-05-07T00:15:31;3.70;;;2.22;;
61709;SDS011;47633;51.494;5.386;2023-05-07T00:17:56;4.00;;;2.25;;
61709;SDS011;47633;51.494;5.386;2023-05-07T00:20:23;4.32;;;2.25;;
61709;SDS011;47633;51.494;5.386;2023-05-07T00:22:48;4.65;;;2.20;;
61709;SDS011;47633;51.494;5.386;2023-05-07T00:25:13;3.83;;;2.23;;
61709;SDS011;47633;51.494;5.386;2023-05-07T00:27:39;3.92;;;2.08;;
61709;SDS011;47633;51.494;5.386;2023-05-07T00:30:05;4.30;;;2.53;;
61709;SDS011;47633;51.494;5.386;2023-05-07T00:32:31;4.22;;;2.42;;
61709;SDS011;47633;51.494;5.386;2023-05-07T00:34:56;3.58;;;1.90;;
61709;SDS011;47633;51.494;5.386;2023-05-07T00:37:21;4.18;;;2.25;;
61709;SDS011;47633;51.494;5.386;2023-05-07T00:39:46;4.65;;;2.58;;
61709;SDS011;47633;51.494;5.386;2023-05-07T00:42:12;4.67;;;2.50;;
61709;SDS011;47633;51.494;5.386;2023-05-07T00:44:37;4.80;;;2.20;;
61709;SDS011;47633;51.494;5.386;2023-05-07T00:47:03;4.80;;;2.20;;
61709;SDS011;47633;51.494;5.386;2023-05-07T00:49:35;4.03;;;2.30;;
61709;SDS011;47633;51.494;5.386;2023-05-07T00:52:03;4.30;;;2.20;;
61709;SDS011;47633;51.494;5.386;2023-05-07T00:54:30;3.83;;;2.17;;
61709;SDS011;47633;51.494;5.386;2023-05-07T00:56:56;4.38;;;2.42;;
61709;SDS011;47633;51.494;5.386;2023-05-07T00:59:21;4.00;;;2.30;;
61709;SDS011;47633;51.494;5.386;2023-05-07T01:01:46;5.10;;;2.45;;
61709;SDS011;47633;51.494;5.386;2023-05-07T01:04:11;3.60;;;2.05;;
61709;SDS011;47633;51.494;5.386;2023-05-07T01:06:37;3.77;;;2.00;;
61709;SDS011;47633;51.494;5.386;2023-05-07T01:09:02;4.45;;;1.95;;
61709;SDS011;47633;51.494;5.386;2023-05-07T01:11:29;4.30;;;2.20;;
61709;SDS011;47633;51.494;5.386;2023-05-07T01:13:55;4.20;;;2.33;;
61709;SDS011;47633;51.494;5.386;2023-05-07T01:16:21;4.85;;;2.40;;
61709;SDS011;47633;51.494;5.386;2023-05-07T01:18:47;4.40;;;2.20;;
61709;SDS011;47633;51.494;5.386;2023-05-07T01:21:13;3.95;;;2.00;;
61709;SDS011;47633;51.494;5.386;2023-05-07T01:23:41;4.82;;;2.30;;
61709;SDS011;47633;51.494;5.386;2023-05-07T01:26:07;4.28;;;2.08;;
61709;SDS011;47633;51.494;5.386;2023-05-07T01:28:32;4.00;;;2.08;;
61709;SDS011;47633;51.494;5.386;2023-05-07T01:31:02;4.38;;;2.30;;
61709;SDS011;47633;51.494;5.386;2023-05-07T01:33:29;4.53;;;2.50;;
61709;SDS011;47633;51.494;5.386;2023-05-07T01:35:58;3.85;;;2.05;;
61709;SDS011;47633;51.494;5.386;2023-05-07T01:38:27;3.50;;;2.10;;
61709;SDS011;47633;51.494;5.386;2023-05-07T01:40:53;4.25;;;2.10;;
61709;SDS011;47633;51.494;5.386;2023-05-07T01:43:18;4.30;;;2.40;;
61709;SDS011;47633;51.494;5.386;2023-05-07T01:45:44;3.60;;;2.03;;
61709;SDS011;47633;51.494;5.386;2023-05-07T01:48:10;3.90;;;2.30;;
61709;SDS011;47633;51.494;5.386;2023-05-07T01:50:37;4.20;;;2.30;;
61709;SDS011;47633;51.494;5.386;2023-05-07T01:53:03;4.68;;;2.40;;
61709;SDS011;47633;51.494;5.386;2023-05-07T01:55:29;4.30;;;2.33;;
61709;SDS011;47633;51.494;5.386;2023-05-07T01:57:54;5.60;;;2.30;;
61709;SDS011;47633;51.494;5.386;2023-05-07T02:00:19;4.85;;;2.58;;
61709;SDS011;47633;51.494;5.386;2023-05-07T02:02:45;4.25;;;2.20;;
61709;SDS011;47633;51.494;5.386;2023-05-07T02:05:10;4.07;;;2.28;;
61709;SDS011;47633;51.494;5.386;2023-05-07T02:07:36;4.07;;;2.20;;
61709;SDS011;47633;51.494;5.386;2023-05-07T02:10:01;4.55;;;2.55;;
61709;SDS011;47633;51.494;5.386;2023-05-07T02:12:28;4.05;;;2.45;;
61709;SDS011;47633;51.494;5.386;2023-05-07T02:14:53;5.63;;;2.45;;
61709;SDS011;47633;51.494;5.386;2023-05-07T02:17:18;4.00;;;2.40;;
61709;SDS011;47633;51.494;5.386;2023-05-07T02:19:44;4.70;;;2.60;;
61709;SDS011;47633;51.494;5.386;2023-05-07T02:22:09;4.73;;;2.90;;
61709;SDS011;47633;51.494;5.386;2023-05-07T02:24:34;5.05;;;2.90;;
61709;SDS011;47633;51.494;5.386;2023-05-07T02:27:00;4.10;;;2.40;;
61709;SDS011;47633;51.494;5.386;2023-05-07T02:29:25;4.15;;;2.38;;
61709;SDS011;47633;51.494;5.386;2023-05-07T02:31:50;4.33;;;2.37;;
61709;SDS011;47633;51.494;5.386;2023-05-07T02:34:17;4.68;;;2.70;;
61709;SDS011;47633;51.494;5.386;2023-05-07T02:36:43;4.60;;;2.58;;
61709;SDS011;47633;51.494;5.386;2023-05-07T02:39:08;5.15;;;2.83;;
61709;SDS011;47633;51.494;5.386;2023-05-07T02:41:33;4.10;;;2.40;;
61709;SDS011;47633;51.494;5.386;2023-05-07T02:43:59;4.90;;;2.55;;
61709;SDS011;47633;51.494;5.386;2023-05-07T02:46:24;5.20;;;3.13;;
61709;SDS011;47633;51.494;5.386;2023-05-07T02:48:50;4.30;;;2.65;;
61709;SDS011;47633;51.494;5.386;2023-05-07T02:51:17;5.05;;;2.90;;
61709;SDS011;47633;51.494;5.386;2023-05-07T02:53:44;5.78;;;2.97;;
61709;SDS011;47633;51.494;5.386;2023-05-07T02:56:09;4.63;;;2.80;;
61709;SDS011;47633;51.494;5.386;2023-05-07T02:58:35;4.73;;;2.63;;
61709;SDS011;47633;51.494;5.386;2023-05-07T03:01:00;4.30;;;2.53;;
61709;SDS011;47633;51.494;5.386;2023-05-07T03:03:25;5.10;;;2.80;;
61709;SDS011;47633;51.494;5.386;2023-05-07T03:05:50;4.50;;;2.60;;
61709;SDS011;47633;51.494;5.386;2023-05-07T03:08:16;4.82;;;2.83;;
61709;SDS011;47633;51.494;5.386;2023-05-07T03:10:41;4.28;;;2.53;;
61709;SDS011;47633;51.494;5.386;2023-05-07T03:13:06;4.30;;;2.83;;
61709;SDS011;47633;51.494;5.386;2023-05-07T03:15:32;4.70;;;3.00;;
61709;SDS011;47633;51.494;5.386;2023-05-07T03:17:57;4.60;;;2.83;;
61709;SDS011;47633;51.494;5.386;2023-05-07T03:20:22;4.47;;;2.70;;
61709;SDS011;47633;51.494;5.386;2023-05-07T03:22:48;5.32;;;3.10;;
61709;SDS011;47633;51.494;5.386;2023-05-07T03:25:13;4.77;;;2.93;;
61709;SDS011;47633;51.494;5.386;2023-05-07T03:27:39;5.95;;;3.33;;
61709;SDS011;47633;51.494;5.386;2023-05-07T03:30:06;5.70;;;3.40;;
61709;SDS011;47633;51.494;5.386;2023-05-07T03:32:32;4.85;;;3.00;;
61709;SDS011;47633;51.494;5.386;2023-05-07T03:34:58;5.65;;;3.72;;
61709;SDS011;47633;51.494;5.386;2023-05-07T03:37:23;5.07;;;3.00;;
61709;SDS011;47633;51.494;5.386;2023-05-07T03:39:48;6.15;;;3.20;;
61709;SDS011;47633;51.494;5.386;2023-05-07T03:42:14;4.80;;;3.30;;
61709;SDS011;47633;51.494;5.386;2023-05-07T03:44:40;5.70;;;3.60;;
61709;SDS011;47633;51.494;5.386;2023-05-07T03:47:05;5.65;;;3.60;;
61709;SDS011;47633;51.494;5.386;2023-05-07T03:49:30;5.40;;;3.50;;
61709;SDS011;47633;51.494;5.386;2023-05-07T03:51:56;5.82;;;3.35;;
61709;SDS011;47633;51.494;5.386;2023-05-07T03:54:21;6.55;;;3.80;;
61709;SDS011;47633;51.494;5.386;2023-05-07T03:56:46;6.55;;;3.88;;
61709;SDS011;47633;51.494;5.386;2023-05-07T03:59:12;7.60;;;4.00;;
61709;SDS011;47633;51.494;5.386;2023-05-07T04:01:38;6.18;;;3.72;;
61709;SDS011;47633;51.494;5.386;2023-05-07T04:04:03;5.40;;;3.47;;
61709;SDS011;47633;51.494;5.386;2023-05-07T04:06:29;6.38;;;3.97;;
61709;SDS011;47633;51.494;5.386;2023-05-07T04:08:54;5.60;;;3.85;;
61709;SDS011;47633;51.494;5.386;2023-05-07T04:11:19;6.97;;;3.87;;
61709;SDS011;47633;51.494;5.386;2023-05-07T04:13:45;5.75;;;3.97;;
61709;SDS011;47633;51.494;5.386;2023-05-07T04:16:10;6.63;;;4.38;;
61709;SDS011;47633;51.494;5.386;2023-05-07T04:18:36;5.97;;;3.80;;
61709;SDS011;47633;51.494;5.386;2023-05-07T04:21:01;5.40;;;3.75;;
61709;SDS011;47633;51.494;5.386;2023-05-07T04:23:26;6.25;;;3.95;;
61709;SDS011;47633;51.494;5.386;2023-05-07T04:25:52;6.07;;;3.70;;
61709;SDS011;47633;51.494;5.386;2023-05-07T04:28:17;5.38;;;3.88;;
61709;SDS011;47633;51.494;5.386;2023-05-07T04:30:43;5.28;;;3.97;;
61709;SDS011;47633;51.494;5.386;2023-05-07T04:33:08;5.13;;;3.58;;
61709;SDS011;47633;51.494;5.386;2023-05-07T04:35:33;5.80;;;4.50;;
61709;SDS011;47633;51.494;5.386;2023-05-07T04:37:58;5.60;;;3.83;;
61709;SDS011;47633;51.494;5.386;2023-05-07T04:40:24;5.45;;;3.90;;
61709;SDS011;47633;51.494;5.386;2023-05-07T04:42:49;6.53;;;4.20;;
61709;SDS011;47633;51.494;5.386;2023-05-07T04:45:15;6.43;;;4.18;;
61709;SDS011;47633;51.494;5.386;2023-05-07T04:47:40;5.72;;;3.92;;
61709;SDS011;47633;51.494;5.386;2023-05-07T04:50:06;5.60;;;3.90;;
61709;SDS011;47633;51.494;5.386;2023-05-07T04:52:32;5.47;;;3.65;;
61709;SDS011;47633;51.494;5.386;2023-05-07T04:55:00;6.07;;;4.68;;
61709;SDS011;47633;51.494;5.386;2023-05-07T04:57:26;6.40;;;3.95;;
61709;SDS011;47633;51.494;5.386;2023-05-07T04:59:52;5.20;;;3.78;;
61709;SDS011;47633;51.494;5.386;2023-05-07T05:02:17;5.50;;;3.88;;
61709;SDS011;47633;51.494;5.386;2023-05-07T05:04:43;6.25;;;4.20;;
61709;SDS011;47633;51.494;5.386;2023-05-07T05:07:08;6.33;;;3.73;;
61709;SDS011;47633;51.494;5.386;2023-05-07T05:09:33;6.32;;;4.20;;
61709;SDS011;47633;51.494;5.386;2023-05-07T05:11:59;6.27;;;3.97;;
61709;SDS011;47633;51.494;5.386;2023-05-07T05:14:24;6.57;;;3.90;;
61709;SDS011;47633;51.494;5.386;2023-05-07T05:16:49;6.63;;;4.00;;
61709;SDS011;47633;51.494;5.386;2023-05-07T05:19:15;5.85;;;3.85;;
61709;SDS011;47633;51.494;5.386;2023-05-07T05:21:40;6.20;;;3.78;;
61709;SDS011;47633;51.494;5.386;2023-05-07T05:24:05;5.47;;;3.55;;
61709;SDS011;47633;51.494;5.386;2023-05-07T05:26:31;5.93;;;3.95;;
61709;SDS011;47633;51.494;5.386;2023-05-07T05:28:56;5.30;;;3.63;;
61709;SDS011;47633;51.494;5.386;2023-05-07T05:31:21;5.13;;;3.78;;
61709;SDS011;47633;51.494;5.386;2023-05-07T05:33:47;6.53;;;4.30;;
61709;SDS011;47633;51.494;5.386;2023-05-07T05:36:12;5.57;;;3.90;;
61709;SDS011;47633;51.494;5.386;2023-05-07T05:38:38;5.60;;;3.55;;
61709;SDS011;47633;51.494;5.386;2023-05-07T05:41:04;5.93;;;3.63;;
61709;SDS011;47633;51.494;5.386;2023-05-07T05:43:29;5.78;;;3.50;;
61709;SDS011;47633;51.494;5.386;2023-05-07T05:45:55;5.28;;;3.20;;
61709;SDS011;47633;51.494;5.386;2023-05-07T05:48:21;5.78;;;2.97;;
61709;SDS011;47633;51.494;5.386;2023-05-07T05:50:46;5.78;;;3.40;;
61709;SDS011;47633;51.494;5.386;2023-05-07T05:53:11;5.85;;;3.15;;
61709;SDS011;47633;51.494;5.386;2023-05-07T05:55:37;4.80;;;3.17;;
61709;SDS011;47633;51.494;5.386;2023-05-07T05:58:02;5.10;;;2.65;;
61709;SDS011;47633;51.494;5.386;2023-05-07T06:00:28;5.10;;;3.20;;
61709;SDS011;47633;51.494;5.386;2023-05-07T06:02:54;5.88;;;3.58;;
61709;SDS011;47633;51.494;5.386;2023-05-07T06:05:19;5.70;;;3.78;;
61709;SDS011;47633;51.494;5.386;2023-05-07T06:07:44;5.35;;;3.50;;
61709;SDS011;47633;51.494;5.386;2023-05-07T06:10:10;5.40;;;3.37;;
61709;SDS011;47633;51.494;5.386;2023-05-07T06:12:35;7.63;;;4.05;;
61709;SDS011;47633;51.494;5.386;2023-05-07T06:15:00;6.37;;;3.90;;
61709;SDS011;47633;51.494;5.386;2023-05-07T06:17:26;6.10;;;3.45;;
61709;SDS011;47633;51.494;5.386;2023-05-07T06:19:51;6.68;;;3.80;;
61709;SDS011;47633;51.494;5.386;2023-05-07T06:22:17;7.78;;;4.20;;
61709;SDS011;47633;51.494;5.386;2023-05-07T06:24:42;6.68;;;3.47;;
61709;SDS011;47633;51.494;5.386;2023-05-07T06:27:07;6.25;;;3.45;;
61709;SDS011;47633;51.494;5.386;2023-05-07T06:29:33;5.07;;;3.55;;
61709;SDS011;47633;51.494;5.386;2023-05-07T06:32:11;5.05;;;3.25;;
61709;SDS011;47633;51.494;5.386;2023-05-07T06:34:38;6.20;;;3.63;;
61709;SDS011;47633;51.494;5.386;2023-05-07T06:37:04;8.68;;;3.90;;
61709;SDS011;47633;51.494;5.386;2023-05-07T06:39:30;7.75;;;4.07;;
61709;SDS011;47633;51.494;5.386;2023-05-07T06:41:55;6.03;;;3.67;;
61709;SDS011;47633;51.494;5.386;2023-05-07T06:44:20;7.15;;;3.53;;
61709;SDS011;47633;51.494;5.386;2023-05-07T06:46:46;6.73;;;3.87;;
61709;SDS011;47633;51.494;5.386;2023-05-07T06:49:14;5.82;;;3.97;;
61709;SDS011;47633;51.494;5.386;2023-05-07T06:51:39;7.38;;;3.88;;
61709;SDS011;47633;51.494;5.386;2023-05-07T06:54:05;7.10;;;3.63;;
61709;SDS011;47633;51.494;5.386;2023-05-07T06:56:30;6.47;;;3.80;;
61709;SDS011;47633;51.494;5.386;2023-05-07T06:58:56;7.47;;;4.20;;
61709;SDS011;47633;51.494;5.386;2023-05-07T07:01:21;8.37;;;3.97;;
61709;SDS011;47633;51.494;5.386;2023-05-07T07:03:47;8.57;;;3.85;;
61709;SDS011;47633;51.494;5.386;2023-05-07T07:06:12;5.95;;;3.58;;
61709;SDS011;47633;51.494;5.386;2023-05-07T07:08:37;7.32;;;3.95;;
61709;SDS011;47633;51.494;5.386;2023-05-07T07:11:03;5.50;;;3.85;;
61709;SDS011;47633;51.494;5.386;2023-05-07T07:13:29;6.15;;;3.83;;
61709;SDS011;47633;51.494;5.386;2023-05-07T07:15:54;4.82;;;3.45;;
61709;SDS011;47633;51.494;5.386;2023-05-07T07:18:20;7.22;;;3.65;;
61709;SDS011;47633;51.494;5.386;2023-05-07T07:20:45;6.60;;;4.03;;
61709;SDS011;47633;51.494;5.386;2023-05-07T07:23:10;8.15;;;3.45;;
61709;SDS011;47633;51.494;5.386;2023-05-07T07:25:36;5.83;;;3.30;;
61709;SDS011;47633;51.494;5.386;2023-05-07T07:28:01;7.95;;;3.50;;
61709;SDS011;47633;51.494;5.386;2023-05-07T07:30:27;6.13;;;3.00;;
61709;SDS011;47633;51.494;5.386;2023-05-07T07:32:52;7.30;;;3.40;;
61709;SDS011;47633;51.494;5.386;2023-05-07T07:35:18;9.50;;;4.10;;
61709;SDS011;47633;51.494;5.386;2023-05-07T07:37:43;5.13;;;3.45;;
61709;SDS011;47633;51.494;5.386;2023-05-07T07:40:08;6.13;;;3.70;;
61709;SDS011;47633;51.494;5.386;2023-05-07T07:42:34;8.73;;;3.88;;
61709;SDS011;47633;51.494;5.386;2023-05-07T07:44:59;6.40;;;3.35;;
61709;SDS011;47633;51.494;5.386;2023-05-07T07:47:25;6.72;;;3.53;;
61709;SDS011;47633;51.494;5.386;2023-05-07T07:49:50;8.27;;;3.83;;
61709;SDS011;47633;51.494;5.386;2023-05-07T07:52:15;7.20;;;3.50;;
61709;SDS011;47633;51.494;5.386;2023-05-07T07:54:41;5.38;;;3.42;;
61709;SDS011;47633;51.494;5.386;2023-05-07T07:57:06;6.38;;;3.22;;
61709;SDS011;47633;51.494;5.386;2023-05-07T07:59:31;5.90;;;3.80;;
61709;SDS011;47633;51.494;5.386;2023-05-07T08:01:56;5.45;;;4.15;;
61709;SDS011;47633;51.494;5.386;2023-05-07T08:04:22;8.50;;;4.32;;
61709;SDS011;47633;51.494;5.386;2023-05-07T08:06:48;12.15;;;3.97;;
61709;SDS011;47633;51.494;5.386;2023-05-07T08:09:13;8.73;;;4.25;;
61709;SDS011;47633;51.494;5.386;2023-05-07T08:11:39;11.68;;;4.13;;
61709;SDS011;47633;51.494;5.386;2023-05-07T08:14:04;6.95;;;3.70;;
61709;SDS011;47633;51.494;5.386;2023-05-07T08:16:30;9.57;;;3.70;;
61709;SDS011;47633;51.494;5.386;2023-05-07T08:18:55;7.63;;;3.70;;
61709;SDS011;47633;51.494;5.386;2023-05-07T08:21:22;6.35;;;3.55;;
61709;SDS011;47633;51.494;5.386;2023-05-07T08:23:48;8.88;;;3.90;;
61709;SDS011;47633;51.494;5.386;2023-05-07T08:26:13;8.35;;;4.03;;
61709;SDS011;47633;51.494;5.386;2023-05-07T08:28:38;8.37;;;3.87;;
61709;SDS011;47633;51.494;5.386;2023-05-07T08:31:04;6.78;;;3.60;;
61709;SDS011;47633;51.494;5.386;2023-05-07T08:33:30;6.53;;;3.53;;
61709;SDS011;47633;51.494;5.386;2023-05-07T08:35:56;7.20;;;4.10;;
61709;SDS011;47633;51.494;5.386;2023-05-07T08:38:21;7.15;;;3.40;;
61709;SDS011;47633;51.494;5.386;2023-05-07T08:40:46;8.10;;;3.45;;
61709;SDS011;47633;51.494;5.386;2023-05-07T08:43:12;8.00;;;3.35;;
61709;SDS011;47633;51.494;5.386;2023-05-07T08:45:39;10.48;;;3.42;;
61709;SDS011;47633;51.494;5.386;2023-05-07T08:48:06;6.80;;;3.08;;
61709;SDS011;47633;51.494;5.386;2023-05-07T08:50:35;9.73;;;3.00;;
61709;SDS011;47633;51.494;5.386;2023-05-07T08:53:02;6.85;;;3.30;;
61709;SDS011;47633;51.494;5.386;2023-05-07T08:55:29;8.48;;;3.75;;
61709;SDS011;47633;51.494;5.386;2023-05-07T08:57:55;5.18;;;2.88;;
61709;SDS011;47633;51.494;5.386;2023-05-07T09:00:20;8.20;;;3.40;;
61709;SDS011;47633;51.494;5.386;2023-05-07T09:02:45;6.53;;;3.00;;
61709;SDS011;47633;51.494;5.386;2023-05-07T09:05:11;5.78;;;3.28;;
61709;SDS011;47633;51.494;5.386;2023-05-07T09:07:36;6.82;;;3.45;;
61709;SDS011;47633;51.494;5.386;2023-05-07T09:10:04;7.00;;;3.35;;
61709;SDS011;47633;51.494;5.386;2023-05-07T09:12:30;6.72;;;3.13;;
61709;SDS011;47633;51.494;5.386;2023-05-07T09:14:55;6.63;;;3.10;;
61709;SDS011;47633;51.494;5.386;2023-05-07T09:17:21;5.70;;;3.30;;
61709;SDS011;47633;51.494;5.386;2023-05-07T09:19:46;6.15;;;3.08;;
61709;SDS011;47633;51.494;5.386;2023-05-07T09:22:12;8.43;;;3.40;;
61709;SDS011;47633;51.494;5.386;2023-05-07T09:24:38;7.63;;;3.28;;
61709;SDS011;47633;51.494;5.386;2023-05-07T09:27:07;6.43;;;3.58;;
61709;SDS011;47633;51.494;5.386;2023-05-07T09:29:33;9.80;;;3.92;;
61709;SDS011;47633;51.494;5.386;2023-05-07T09:32:02;12.95;;;3.90;;
61709;SDS011;47633;51.494;5.386;2023-05-07T09:34:29;8.85;;;3.30;;
61709;SDS011;47633;51.494;5.386;2023-05-07T09:36:55;10.43;;;3.40;;
61709;SDS011;47633;51.494;5.386;2023-05-07T09:39:21;10.38;;;3.90;;
61709;SDS011;47633;51.494;5.386;2023-05-07T09:41:48;12.73;;;3.38;;
61709;SDS011;47633;51.494;5.386;2023-05-07T09:44:14;17.20;;;4.28;;
61709;SDS011;47633;51.494;5.386;2023-05-07T09:46:41;18.10;;;3.60;;
61709;SDS011;47633;51.494;5.386;2023-05-07T09:49:08;15.80;;;4.38;;
61709;SDS011;47633;51.494;5.386;2023-05-07T09:51:48;12.80;;;3.70;;
61709;SDS011;47633;51.494;5.386;2023-05-07T09:54:16;14.77;;;3.50;;
61709;SDS011;47633;51.494;5.386;2023-05-07T09:56:43;12.82;;;3.63;;
61709;SDS011;47633;51.494;5.386;2023-05-07T09:59:11;13.25;;;3.97;;
61709;SDS011;47633;51.494;5.386;2023-05-07T10:01:38;12.90;;;4.40;;
61709;SDS011;47633;51.494;5.386;2023-05-07T10:04:07;14.82;;;3.75;;
61709;SDS011;47633;51.494;5.386;2023-05-07T10:06:35;11.43;;;3.72;;
61709;SDS011;47633;51.494;5.386;2023-05-07T10:09:01;10.07;;;3.22;;
61709;SDS011;47633;51.494;5.386;2023-05-07T10:11:27;9.13;;;3.45;;
61709;SDS011;47633;51.494;5.386;2023-05-07T10:13:53;11.75;;;3.33;;
61709;SDS011;47633;51.494;5.386;2023-05-07T10:16:19;11.07;;;3.58;;
61709;SDS011;47633;51.494;5.386;2023-05-07T10:18:45;10.25;;;3.40;;
61709;SDS011;47633;51.494;5.386;2023-05-07T10:21:11;8.43;;;3.38;;
61709;SDS011;47633;51.494;5.386;2023-05-07T10:23:46;9.93;;;3.67;;
61709;SDS011;47633;51.494;5.386;2023-05-07T10:26:14;8.57;;;3.10;;
61709;SDS011;47633;51.494;5.386;2023-05-07T10:28:43;9.65;;;3.08;;
61709;SDS011;47633;51.494;5.386;2023-05-07T10:33:56;12.20;;;3.67;;
61709;SDS011;47633;51.494;5.386;2023-05-07T10:36:23;13.57;;;3.95;;
61709;SDS011;47633;51.494;5.386;2023-05-07T10:38:49;14.80;;;3.67;;
61709;SDS011;47633;51.494;5.386;2023-05-07T10:41:15;8.63;;;3.70;;
61709;SDS011;47633;51.494;5.386;2023-05-07T10:43:42;13.13;;;3.60;;
61709;SDS011;47633;51.494;5.386;2023-05-07T10:46:16;13.07;;;3.50;;
61709;SDS011;47633;51.494;5.386;2023-05-07T10:51:29;15.18;;;4.45;;
61709;SDS011;47633;51.494;5.386;2023-05-07T10:56:37;11.15;;;3.50;;
61709;SDS011;47633;51.494;5.386;2023-05-07T11:01:55;6.88;;;3.95;;
61709;SDS011;47633;51.494;5.386;2023-05-07T11:04:23;10.80;;;3.40;;
61709;SDS011;47633;51.494;5.386;2023-05-07T11:15:05;15.25;;;3.85;;
61709;SDS011;47633;51.494;5.386;2023-05-07T11:17:34;10.85;;;3.08;;
61709;SDS011;47633;51.494;5.386;2023-05-07T11:20:00;16.55;;;3.22;;
61709;SDS011;47633;51.494;5.386;2023-05-07T11:25:01;11.95;;;3.00;;
61709;SDS011;47633;51.494;5.386;2023-05-07T11:27:27;17.15;;;4.85;;
61709;SDS011;47633;51.494;5.386;2023-05-07T11:29:52;13.15;;;3.13;;
61709;SDS011;47633;51.494;5.386;2023-05-07T11:32:28;15.25;;;3.60;;
61709;SDS011;47633;51.494;5.386;2023-05-07T11:34:55;13.13;;;4.07;;
61709;SDS011;47633;51.494;5.386;2023-05-07T11:37:23;19.15;;;5.22;;
61709;SDS011;47633;51.494;5.386;2023-05-07T11:39:49;11.65;;;7.15;;
61709;SDS011;47633;51.494;5.386;2023-05-07T11:42:29;11.85;;;6.72;;
61709;SDS011;47633;51.494;5.386;2023-05-07T11:44:59;11.10;;;7.50;;
61709;SDS011;47633;51.494;5.386;2023-05-07T11:47:24;7.70;;;6.40;;
61709;SDS011;47633;51.494;5.386;2023-05-07T11:49:53;7.93;;;5.68;;
61709;SDS011;47633;51.494;5.386;2023-05-07T11:52:19;10.95;;;6.65;;
61709;SDS011;47633;51.494;5.386;2023-05-07T11:54:49;12.40;;;6.53;;
61709;SDS011;47633;51.494;5.386;2023-05-07T11:57:20;9.27;;;6.47;;
61709;SDS011;47633;51.494;5.386;2023-05-07T11:59:45;15.82;;;6.35;;
61709;SDS011;47633;51.494;5.386;2023-05-07T12:02:13;10.02;;;6.43;;
61709;SDS011;47633;51.494;5.386;2023-05-07T12:04:39;10.20;;;5.90;;
61709;SDS011;47633;51.494;5.386;2023-05-07T12:07:05;10.73;;;5.65;;
61709;SDS011;47633;51.494;5.386;2023-05-07T12:09:32;8.98;;;5.68;;
61709;SDS011;47633;51.494;5.386;2023-05-07T12:12:02;11.07;;;5.80;;
61709;SDS011;47633;51.494;5.386;2023-05-07T12:14:28;11.70;;;6.80;;
61709;SDS011;47633;51.494;5.386;2023-05-07T12:16:54;10.65;;;6.88;;
61709;SDS011;47633;51.494;5.386;2023-05-07T12:19:19;9.75;;;6.10;;
61709;SDS011;47633;51.494;5.386;2023-05-07T12:21:45;8.68;;;5.97;;
61709;SDS011;47633;51.494;5.386;2023-05-07T12:24:10;9.85;;;6.30;;
61709;SDS011;47633;51.494;5.386;2023-05-07T12:26:39;10.50;;;5.60;;
61709;SDS011;47633;51.494;5.386;2023-05-07T12:29:05;14.70;;;5.95;;
61709;SDS011;47633;51.494;5.386;2023-05-07T12:31:31;10.45;;;6.10;;
61709;SDS011;47633;51.494;5.386;2023-05-07T12:33:56;11.95;;;4.93;;
61709;SDS011;47633;51.494;5.386;2023-05-07T12:36:21;9.57;;;5.35;;
61709;SDS011;47633;51.494;5.386;2023-05-07T12:38:48;10.40;;;4.13;;
61709;SDS011;47633;51.494;5.386;2023-05-07T12:41:14;10.75;;;4.53;;
61709;SDS011;47633;51.494;5.386;2023-05-07T12:43:41;8.93;;;4.40;;
61709;SDS011;47633;51.494;5.386;2023-05-07T12:46:09;8.93;;;4.10;;
61709;SDS011;47633;51.494;5.386;2023-05-07T12:48:37;5.32;;;3.60;;
61709;SDS011;47633;51.494;5.386;2023-05-07T12:51:03;9.55;;;3.63;;
61709;SDS011;47633;51.494;5.386;2023-05-07T12:53:31;5.70;;;3.47;;
61709;SDS011;47633;51.494;5.386;2023-05-07T12:55:57;6.78;;;3.40;;
61709;SDS011;47633;51.494;5.386;2023-05-07T12:58:27;6.47;;;3.60;;
61709;SDS011;47633;51.494;5.386;2023-05-07T13:00:55;10.95;;;3.50;;
61709;SDS011;47633;51.494;5.386;2023-05-07T13:05:48;8.00;;;2.70;;
61709;SDS011;47633;51.494;5.386;2023-05-07T13:08:23;8.30;;;2.95;;
61709;SDS011;47633;51.494;5.386;2023-05-07T13:10:49;9.10;;;2.65;;
61709;SDS011;47633;51.494;5.386;2023-05-07T13:13:15;6.35;;;2.55;;
61709;SDS011;47633;51.494;5.386;2023-05-07T13:15:40;8.53;;;2.93;;
61709;SDS011;47633;51.494;5.386;2023-05-07T13:18:05;9.27;;;3.20;;
61709;SDS011;47633;51.494;5.386;2023-05-07T13:20:31;8.45;;;2.60;;
61709;SDS011;47633;51.494;5.386;2023-05-07T13:22:56;9.95;;;3.13;;
61709;SDS011;47633;51.494;5.386;2023-05-07T13:25:21;8.40;;;2.60;;
61709;SDS011;47633;51.494;5.386;2023-05-07T13:27:46;6.87;;;2.50;;
61709;SDS011;47633;51.494;5.386;2023-05-07T13:30:12;7.73;;;2.60;;
61709;SDS011;47633;51.494;5.386;2023-05-07T13:32:37;9.35;;;2.70;;
61709;SDS011;47633;51.494;5.386;2023-05-07T13:35:02;7.55;;;2.60;;
61709;SDS011;47633;51.494;5.386;2023-05-07T13:37:28;9.00;;;2.67;;
61709;SDS011;47633;51.494;5.386;2023-05-07T13:39:53;6.65;;;2.38;;
61709;SDS011;47633;51.494;5.386;2023-05-07T13:42:18;6.55;;;2.50;;
61709;SDS011;47633;51.494;5.386;2023-05-07T13:44:44;7.05;;;3.00;;
61709;SDS011;47633;51.494;5.386;2023-05-07T13:47:10;11.38;;;3.55;;
61709;SDS011;47633;51.494;5.386;2023-05-07T13:49:35;7.15;;;2.65;;
61709;SDS011;47633;51.494;5.386;2023-05-07T13:52:00;5.55;;;2.67;;
61709;SDS011;47633;51.494;5.386;2023-05-07T13:54:26;8.73;;;2.70;;
61709;SDS011;47633;51.494;5.386;2023-05-07T13:56:51;7.50;;;2.90;;
61709;SDS011;47633;51.494;5.386;2023-05-07T13:59:16;6.43;;;2.17;;
61709;SDS011;47633;51.494;5.386;2023-05-07T14:01:42;5.50;;;2.17;;
61709;SDS011;47633;51.494;5.386;2023-05-07T14:04:07;6.97;;;2.60;;
61709;SDS011;47633;51.494;5.386;2023-05-07T14:06:32;8.15;;;2.78;;
61709;SDS011;47633;51.494;5.386;2023-05-07T14:08:58;7.22;;;2.80;;
61709;SDS011;47633;51.494;5.386;2023-05-07T14:11:23;5.80;;;2.20;;
61709;SDS011;47633;51.494;5.386;2023-05-07T14:13:48;5.90;;;2.63;;
61709;SDS011;47633;51.494;5.386;2023-05-07T14:16:13;4.90;;;2.27;;
61709;SDS011;47633;51.494;5.386;2023-05-07T14:18:39;4.97;;;2.45;;
61709;SDS011;47633;51.494;5.386;2023-05-07T14:21:04;6.23;;;2.77;;
61709;SDS011;47633;51.494;5.386;2023-05-07T14:23:31;5.32;;;2.50;;
61709;SDS011;47633;51.494;5.386;2023-05-07T14:25:56;5.30;;;2.27;;
61709;SDS011;47633;51.494;5.386;2023-05-07T14:28:22;8.48;;;2.58;;
61709;SDS011;47633;51.494;5.386;2023-05-07T14:30:47;5.45;;;2.28;;
61709;SDS011;47633;51.494;5.386;2023-05-07T14:33:13;5.03;;;2.30;;
61709;SDS011;47633;51.494;5.386;2023-05-07T14:35:38;5.28;;;2.40;;
61709;SDS011;47633;51.494;5.386;2023-05-07T14:38:03;5.70;;;3.28;;
61709;SDS011;47633;51.494;5.386;2023-05-07T14:40:29;7.30;;;2.63;;
61709;SDS011;47633;51.494;5.386;2023-05-07T14:42:54;6.00;;;2.50;;
61709;SDS011;47633;51.494;5.386;2023-05-07T14:45:22;5.28;;;2.40;;
61709;SDS011;47633;51.494;5.386;2023-05-07T14:47:47;5.82;;;2.22;;
61709;SDS011;47633;51.494;5.386;2023-05-07T14:50:12;6.60;;;2.50;;
61709;SDS011;47633;51.494;5.386;2023-05-07T14:52:37;4.45;;;2.40;;
61709;SDS011;47633;51.494;5.386;2023-05-07T14:55:03;7.77;;;2.50;;
61709;SDS011;47633;51.494;5.386;2023-05-07T14:57:29;4.75;;;2.28;;
61709;SDS011;47633;51.494;5.386;2023-05-07T14:59:55;4.93;;;2.42;;
61709;SDS011;47633;51.494;5.386;2023-05-07T15:02:20;5.20;;;2.15;;